Йошкар-Ола-2

Карта отелей и гостиниц, располагающихся рядом с аэропортом Йошкар-Ола-2 :

Йошкар-Ола-2 Марий Эл 56° 49' 49.5588" N, 48° 14' 47.4" E
Код аэродрома ИКАО
HF8G
Код аэродрома RU
ХФ8Г
Координаты
N56.83043° E048.24650°
Превышение над уровнем моря
120
Основная полоса
16/34
Курс магнитный
158,8/338,8
Длина основной ВПП
15
Ширина основной ВПП
12
Покрытие основной ВПП
Твёрдое
Освещение ВПП
Нет
Тип: 
Вертодром
Класс аэродрома: 
Принадлежность: 
МО
Статус: 
Действующий
Сайт: 
E-mail аэродрома: 
Страна: 
Россия
Регион: 
Марий Эл
Город: 
Дополнительная информация: 
Оператор: 14-я РД РВСН.

Найти трансфер

С помощью этой формы Вы можете найти трансфер из аэропорта Йошкар-Ола-2 в город, аэропорт или вокзал:

Карта места

Javascript is required to view this map.

Погода в аэропортах:

Авиационная погода в Грозном

Регион: 
Погода METAR: 
URMG 170900Z 07007MPS 2200 -RA BR OVC007 02/02 Q1005 R26/290250 NOSIG RMK MT OBSC OBST OBSC QFE739/0986
Время наблюдения
2021-01-17T09:00:00Z
Температура C
2.0
Точка росы
2.0
Направление ветра
70
Скорость ветра (узлы)
14
Метео видимость
1.37
Явления погоды
-RA BR
Условия полета
IFR
Аэропорт подробнее: 

Авиационная погода в аэропорту Сокол

Регион: 
Погода METAR: 
UHMM 170900Z 11002MPS 4900 -SHSN BKN010 OVC015CB M24/M26 Q1007 R10/490140 NOSIG RMK QFE741 R28/09001MPS
Время наблюдения
2021-01-17T09:00:00Z
Температура C
-24.0
Точка росы
-26.0
Направление ветра
110
Скорость ветра (узлы)
4
Метео видимость
3.04
Явления погоды
-SHSN
Условия полета
MVFR
Аэропорт подробнее: 

Авиационная погода в Перми

Регион: 
Погода METAR: 
USPP 170900Z 25006MPS 9999 -SN BKN025 M11/M14 Q0997 R21/690240 NOSIG RMK QFE737
Время наблюдения
2021-01-17T09:00:00Z
Температура C
-11.0
Точка росы
-14.0
Направление ветра
250
Скорость ветра (узлы)
12
Метео видимость
6.21
Явления погоды
-SN
Условия полета
MVFR
Аэропорт подробнее: 

Авиационная погода в Стамбуле

Регион: 
Погода METAR: 
LTFM 170850Z 35024KT 2000 R35R/1400U R17L/P1500N R34L/1000N R36/P1500D -SHSN BKN009 BKN020 M01/M04 Q1014 BECMG TL0920 6000 RMK RWY17L 35022KT RWY34L 34020KT RWY16R 34019KT RWY36 36024KT RWY18 35024KT
Время наблюдения
2021-01-17T08:50:00Z
Температура C
-1.0
Точка росы
-4.0
Направление ветра
350
Скорость ветра (узлы)
24
Метео видимость
1.24
Явления погоды
-SHSN
Условия полета
IFR